Data for 01/16/2011

Time Sea-Level Adjusted Pressure Absolute Pressure Temperature Relative Humidity Dew Point   
(mb) (inHg) (mb) (inHg) (C) (F) (%) (C) (F)
00:05 1014 29.94 843 24.89 2.3 36.1 52 -6.6 20.1
00:10 1014 29.94 843 24.89 2.2 36 52 -6.6 20.1
00:15 1014 29.94 843 24.89 2 35.6 54 -6.4 20.4
00:20 1014 29.94 844 24.92 2 35.6 52 -6.9 19.6
00:25 1014 29.94 844 24.92 2.2 35.9 49 -7.4 18.7
00:30 1015 29.97 844 24.92 2.4 36.4 48 -7.4 18.7
00:35 1014 29.94 844 24.92 2.6 36.6 49 -7.2 19
00:40 1014 29.94 844 24.92 2.6 36.8 48 -7.4 18.7
00:45 1014 29.94 844 24.92 2.8 37 48 -7.2 19
00:50 1014 29.94 844 24.92 2.8 37 48 -7.2 19
00:55 1015 29.97 844 24.92 3 37.3 48 -7 19.4
01:00 1015 29.97 844 24.92 3 37.3 48 -7 19.4
01:05 1015 29.97 844 24.92 3 37.5 48 -6.8 19.7
01:10 1015 29.97 844 24.92 3.2 37.8 47 -7 19.4
01:15 1015 29.97 844 24.92 3.3 38 54 -5.2 22.7
01:20 1015 29.97 844 24.92 3.6 38.5 53 -5 23.1
01:25 1015 29.97 844 24.92 3.5 38.3 58 -3.9 24.9
01:30 1015 29.97 844 24.92 3.2 37.7 64 -3 26.6
01:35 1015 29.97 844 24.92 3.1 37.5 71 -1.7 28.9
01:40 1015 29.97 844 24.92 3 37.3 76 -0.9 30.4
01:45 1015 29.97 844 24.92 2.7 36.8 77 -0.9 30.5
01:50 1015 29.97 844 24.92 2.5 36.5 79 -0.7 30.7
01:55 1015 29.97 844 24.92 2.1 35.7 84 -0.4 31.3
02:00 1015 29.97 844 24.92 1.6 34.9 86 -0.5 31.2
02:05 1015 29.97 844 24.92 1.3 34.3 90 -0.3 31.5
02:10 1015 29.97 844 24.92 0.9 33.7 91 -0.3 31.5
02:15 1014 29.94 844 24.92 0.7 33.3 93 -0.3 31.4
02:20 1014 29.94 843 24.89 0.6 33 94 -0.3 31.4
02:25 1014 29.94 843 24.89 0.5 32.8 94 -0.4 31.4
02:30 1014 29.94 843 24.89 0.3 32.6 95 -0.4 31.4
02:35 1014 29.94 843 24.89 0.3 32.6 95 -0.3 31.4
02:40 1014 29.94 843 24.89 0.3 32.5 96 -0.3 31.4
02:45 1014 29.94 843 24.89 0.2 32.4 96 -0.3 31.4
02:50 1013 29.91 843 24.89 0.2 32.4 96 -0.3 31.4
02:55 1014 29.94 843 24.89 0.2 32.4 96 -0.3 31.5
03:00 1013 29.91 843 24.89 0.2 32.4 97 -0.2 31.6
03:05 1013 29.91 842 24.86 0.3 32.5 97 -0.2 31.6
03:10 1013 29.91 842 24.86 0.3 32.5 97 -0.2 31.7
03:15 1013 29.91 842 24.86 0.4 32.7 97 -0.1 31.8
03:20 1013 29.91 842 24.86 0.5 32.9 96 -0 31.9
03:25 1013 29.91 842 24.86 0.6 33 96 -0 31.9
03:30 1013 29.91 842 24.86 0.6 33.1 95 -0 31.9
03:35 1013 29.91 842 24.86 0.7 33.3 95 -0 31.9
03:40 1013 29.91 842 24.86 0.8 33.4 94 -0 31.9
03:45 1013 29.91 842 24.86 0.8 33.4 94 -0.1 31.9
03:50 1012 29.88 842 24.86 0.9 33.5 93 -0.1 31.8
03:55 1012 29.88 842 24.86 0.8 33.5 93 -0.2 31.7
04:00 1012 29.88 841 24.83 0.8 33.5 93 -0.2 31.6
04:05 1012 29.88 841 24.83 0.8 33.4 93 -0.3 31.5
04:10 1012 29.88 841 24.83 0.7 33.3 93 -0.3 31.4
04:15 1012 29.88 841 24.83 0.7 33.2 92 -0.4 31.2
04:20 1012 29.88 841 24.83 0.7 33.2 92 -0.4 31.2
04:25 1011 29.85 841 24.83 0.7 33.2 92 -0.5 31.1
04:30 1011 29.85 841 24.83 0.7 33.3 91 -0.5 31.1
04:35 1011 29.85 841 24.83 0.8 33.5 90 -0.6 30.9
04:40 1011 29.85 840 24.81 1 33.8 89 -0.6 31
04:45 1011 29.85 841 24.83 0.9 33.7 90 -0.6 31
04:50 1011 29.85 841 24.83 0.8 33.5 90 -0.6 30.9
04:55 1011 29.85 841 24.83 0.9 33.7 89 -0.6 30.9
05:00 1012 29.88 841 24.83 1.2 34.1 88 -0.6 30.9
05:05 1011 29.85 841 24.83 1.2 34.2 88 -0.5 31.1
05:10 1012 29.88 841 24.83 1.1 34.1 89 -0.4 31.2
05:15 1012 29.88 841 24.83 1 33.8 90 -0.4 31.2
05:20 1012 29.88 841 24.83 1 33.8 90 -0.5 31.2
05:25 1012 29.88 841 24.83 1 33.9 89 -0.6 31
05:30 1012 29.88 841 24.83 1 33.9 89 -0.6 30.8
05:35 1012 29.88 841 24.83 1.1 34 90 -0.4 31.3
05:40 1012 29.88 841 24.83 1.1 33.9 90 -0.4 31.2
05:45 1012 29.88 841 24.83 1.1 34.1 89 -0.5 31.1
05:50 1012 29.88 841 24.83 1.3 34.3 88 -0.5 31.2
05:55 1012 29.88 841 24.83 1.2 34.2 88 -0.5 31.1
06:00 1012 29.88 841 24.83 1.2 34.1 88 -0.5 31
06:05 1012 29.88 841 24.83 1.2 34.2 88 -0.5 31.1
06:10 1012 29.88 841 24.83 1.5 34.6 86 -0.6 30.9
06:15 1012 29.88 841 24.83 1.7 35.1 85 -0.6 30.9
06:20 1012 29.88 841 24.83 1.8 35.2 85 -0.4 31.3
06:25 1012 29.88 841 24.83 1.6 34.9 87 -0.3 31.4
06:30 1012 29.88 841 24.83 1.5 34.7 87 -0.4 31.3
06:35 1011 29.85 840 24.81 1.5 34.6 86 -0.7 30.8
06:40 1011 29.85 840 24.81 1.5 34.7 84 -0.9 30.4
06:45 1011 29.85 840 24.81 1.7 35 82 -1 30.1
06:50 1011 29.85 840 24.81 1.9 35.5 80 -1.1 30
06:55 1011 29.85 840 24.81 2 35.6 80 -1.1 30.1
07:00 1011 29.85 840 24.81 2.1 35.7 78 -1.3 29.6
07:05 1010 29.83 840 24.81 2.1 35.8 78 -1.3 29.6
07:10 1010 29.83 840 24.81 2.2 35.9 78 -1.2 29.8
07:15 1010 29.83 839 24.78 2.1 35.8 81 -0.9 30.4
07:20 1010 29.83 839 24.78 1.8 35.3 81 -1 30.1
07:25 1010 29.83 839 24.78 1.9 35.4 79 -1.5 29.4
07:30 1009 29.8 839 24.78 2.2 36 78 -1.3 29.6
07:35 1009 29.8 839 24.78 2.2 36 78 -1.2 29.9
07:40 1009 29.8 838 24.75 2.3 36.2 78 -1.2 29.8
07:45 1009 29.8 838 24.75 2.6 36.6 74 -1.7 29
07:50 1009 29.8 838 24.75 2.8 37.1 73 -1.6 29.2
07:55 1009 29.8 838 24.75 2.9 37.3 73 -1.4 29.6
08:00 1009 29.8 838 24.75 2.9 37.3 72 -1.5 29.2
08:05 1009 29.8 838 24.75 3 37.4 75 -1.1 30
08:10 1009 29.8 838 24.75 2.6 36.7 76 -1.2 29.8
08:15 1009 29.8 838 24.75 2.8 37 74 -1.4 29.4
08:20 1009 29.8 838 24.75 3.4 38.1 69 -1.7 29
08:25 1009 29.8 839 24.78 3.7 38.6 74 -0.6 30.9
08:30 1009 29.8 839 24.78 3.1 37.6 75 -0.9 30.3
08:35 1010 29.83 839 24.78 3 37.4 74 -1.1 30
08:40 1009 29.8 839 24.78 3.2 37.8 72 -1.3 29.7
08:45 1009 29.8 839 24.78 3.4 38.1 72 -1.1 29.9
08:50 1010 29.83 839 24.78 4 39.1 68 -1.3 29.6
08:55 1010 29.83 839 24.78 4.2 39.5 70 -0.7 30.7
09:00 1010 29.83 839 24.78 3.9 38.9 71 -0.8 30.5
09:05 1010 29.83 839 24.78 3.8 38.9 72 -0.7 30.8
09:10 1010 29.83 839 24.78 3.7 38.6 71 -1 30.2
09:15 1010 29.83 839 24.78 4 39.2 68 -1.3 29.6
09:20 1010 29.83 839 24.78 4.4 39.9 68 -1.1 30
09:25 1010 29.83 839 24.78 4.4 39.8 67 -1.1 30
09:30 1010 29.83 839 24.78 4.4 40 67 -1.2 29.8
09:35 1010 29.83 839 24.78 4.5 40.1 68 -0.9 30.5
09:40 1010 29.83 839 24.78 4.2 39.5 67 -1.3 29.6
09:45 1010 29.83 839 24.78 4.3 39.7 68 -1.1 30.1
09:50 1010 29.83 839 24.78 4.5 40 66 -1.3 29.6
09:55 1010 29.83 839 24.78 4.5 40.1 66 -1.2 29.8
10:00 1010 29.83 839 24.78 4.5 40.1 68 -0.9 30.5
10:05 1010 29.83 839 24.78 4.1 39.5 71 -0.6 30.9
10:10 1010 29.83 839 24.78 3.9 38.9 73 -0.6 30.9
10:15 1010 29.83 839 24.78 3.7 38.7 73 -0.7 30.8
10:20 1010 29.83 839 24.78 3.8 38.9 71 -1 30.3
10:25 1010 29.83 839 24.78 4 39.2 72 -0.6 30.9
10:30 1010 29.83 839 24.78 4.2 39.5 70 -0.8 30.5
10:35 1010 29.83 839 24.78 4.5 40 71 -0.4 31.4
10:40 1010 29.83 839 24.78 4.6 40.3 72 -0.1 31.9
10:45 1010 29.83 839 24.78 4.3 39.8 72 -0.2 31.6
10:50 1010 29.83 839 24.78 4.2 39.6 76 0.5 32.8
10:55 1010 29.83 839 24.78 3.9 39.1 79 0.7 33.2
11:00 1010 29.83 839 24.78 3.8 38.9 76 0.1 32.1
11:05 1010 29.83 839 24.78 4.1 39.3 74 -0.1 31.8
11:10 1010 29.83 839 24.78 4.7 40.5 66 -1 30.2
11:15 1010 29.83 839 24.78 5.5 41.9 65 -0.5 31.1
11:20 1010 29.83 839 24.78 5.7 42.2 66 -0.1 31.8
11:25 1010 29.83 839 24.78 5.4 41.7 77 1.7 35.1
11:30 1010 29.83 839 24.78 4.6 40.2 73 0.2 32.4
11:35 1010 29.83 839 24.78 4.5 40.1 77 0.9 33.5
11:40 1010 29.83 839 24.78 4.6 40.3 72 -0 31.9
11:45 1010 29.83 839 24.78 4.9 40.8 71 0.2 32.3
11:50 1010 29.83 839 24.78 4.9 40.9 72 0.4 32.7
11:55 1009 29.8 839 24.78 4.9 40.7 74 0.6 33.1
12:00 1009 29.8 839 24.78 4.8 40.6 73 0.4 32.8
12:05 1009 29.8 839 24.78 4.9 40.9 72 0.3 32.5
12:10 1009 29.8 839 24.78 5.1 41.1 75 1.1 33.9
12:15 1009 29.8 839 24.78 5.1 41.1 79 1.7 35.1
12:20 1009 29.8 839 24.78 4.8 40.7 80 1.7 35.1
12:25 1009 29.8 839 24.78 4.8 40.6 80 1.6 35
12:30 1009 29.8 839 24.78 4.7 40.5 79 1.4 34.5
12:35 1009 29.8 839 24.78 4.9 40.8 72 0.3 32.5
12:40 1009 29.8 838 24.75 5.3 41.5 71 0.4 32.8
12:45 1009 29.8 838 24.75 5.4 41.8 72 0.8 33.4
12:50 1009 29.8 838 24.75 5.8 42.4 71 0.9 33.5
12:55 1009 29.8 838 24.75 6 42.8 73 1.5 34.7
13:00 1009 29.8 838 24.75 5.8 42.5 71 1 33.9
13:05 1009 29.8 838 24.75 5.8 42.5 75 1.8 35.2
13:10 1009 29.8 838 24.75 5.5 41.9 76 1.6 34.9
13:15 1009 29.8 838 24.75 5.4 41.8 79 2.1 35.8
13:20 1009 29.8 838 24.75 5.3 41.6 79 1.9 35.4
13:25 1009 29.8 838 24.75 5.4 41.7 77 1.7 35.1
13:30 1009 29.8 838 24.75 5.5 42 74 1.4 34.4
13:35 1009 29.8 838 24.75 5.7 42.3 72 1.2 34.1
13:40 1009 29.8 838 24.75 5.8 42.4 74 1.4 34.6
13:45 1009 29.8 838 24.75 5.8 42.5 74 1.7 35
13:50 1009 29.8 838 24.75 5.7 42.2 76 1.7 35.1
13:55 1009 29.8 838 24.75 5.6 42 73 1.1 33.9
14:00 1009 29.8 838 24.75 5.7 42.2 74 1.4 34.4
14:05 1009 29.8 838 24.75 5.9 42.6 71 1 33.9
14:10 1009 29.8 838 24.75 6.2 43.1 70 1.1 33.9
14:15 1009 29.8 838 24.75 6.3 43.4 71 1.4 34.5
14:20 1009 29.8 838 24.75 6.4 43.4 70 1.3 34.3
14:25 1009 29.8 838 24.75 6.3 43.4 69 1 33.7
14:30 1009 29.8 838 24.75 6.6 43.8 66 0.7 33.3
14:35 1009 29.8 838 24.75 6.8 44.2 66 0.8 33.4
14:40 1009 29.8 838 24.75 6.7 44 68 1.1 34
14:45 1009 29.8 838 24.75 6.3 43.4 69 1.2 34.1
14:50 1009 29.8 838 24.75 6.3 43.4 69 1.1 34
14:55 1009 29.8 838 24.75 6.4 43.6 70 1.4 34.5
15:00 1009 29.8 838 24.75 6.6 43.9 68 1.1 34
15:05 1009 29.8 838 24.75 7 44.6 66 1 33.8
15:10 1009 29.8 838 24.75 7.2 44.9 65 1.2 34.1
15:15 1009 29.8 838 24.75 7.4 45.3 64 1.1 34
15:20 1009 29.8 838 24.75 7.5 45.6 64 1.1 34.1
15:25 1009 29.8 838 24.75 7.4 45.3 65 1.3 34.3
15:30 1009 29.8 838 24.75 7.4 45.3 64 1.1 33.9
15:35 1009 29.8 839 24.78 7.5 45.5 64 1.1 34
15:40 1009 29.8 839 24.78 7.3 45.2 65 1.1 34
15:45 1009 29.8 838 24.75 7.3 45.1 63 0.7 33.2
15:50 1009 29.8 838 24.75 7.3 45.1 64 0.9 33.7
15:55 1009 29.8 838 24.75 7.4 45.3 61 0.4 32.8
16:00 1009 29.8 838 24.75 8 46.3 59 0.4 32.7
16:05 1009 29.8 838 24.75 8.1 46.6 58 0.5 32.8
16:10 1009 29.8 838 24.75 8.4 47.1 57 0.3 32.6
16:15 1009 29.8 838 24.75 8.3 46.9 59 0.7 33.3
16:20 1009 29.8 838 24.75 7.8 46.1 59 0.4 32.7
16:25 1009 29.8 838 24.75 7.8 46 60 0.5 32.8
16:30 1009 29.8 838 24.75 7.5 45.4 61 0.4 32.7
16:35 1009 29.8 838 24.75 7.2 45 62 0.4 32.6
16:40 1009 29.8 838 24.75 7 44.7 62 0.3 32.6
16:45 1009 29.8 838 24.75 6.9 44.4 63 0.3 32.6
16:50 1009 29.8 838 24.75 7 44.5 62 0.1 32.2
16:55 1009 29.8 838 24.75 7.2 44.9 61 0.1 32.2
17:00 1009 29.8 838 24.75 7.4 45.3 60 0.1 32.2
17:05 1009 29.8 838 24.75 7.7 45.8 59 0.2 32.4
17:10 1009 29.8 838 24.75 7.7 45.8 60 0.3 32.6
17:15 1009 29.8 838 24.75 7.7 45.8 58 -0 31.9
17:20 1009 29.8 838 24.75 7.8 46.1 58 0.1 32.2
17:25 1009 29.8 838 24.75 7.8 46 58 0.1 32.2
17:30 1009 29.8 838 24.75 7.8 46 58 -0 31.9
17:35 1009 29.8 838 24.75 8.4 47.1 55 -0.2 31.6
17:40 1009 29.8 838 24.75 8.7 47.7 54 0 32.1
17:45 1008 29.77 838 24.75 8.8 47.9 55 0.2 32.4
17:50 1008 29.77 838 24.75 8.6 47.5 55 0.2 32.3
17:55 1009 29.8 838 24.75 8.3 47 57 0.2 32.4
18:00 1009 29.8 838 24.75 8.2 46.7 57 0.1 32.2
18:05 1009 29.8 838 24.75 8.2 46.7 57 0.1 32.1
18:10 1009 29.8 838 24.75 8.4 47 56 0.1 32.2
18:15 1009 29.8 838 24.75 8.5 47.3 55 0.1 32.2
18:20 1008 29.77 838 24.75 8.6 47.4 55 -0 32
18:25 1008 29.77 837 24.72 8.8 47.8 54 -0 32
18:30 1008 29.77 837 24.72 8.7 47.6 57 0.6 33.1
18:35 1008 29.77 837 24.72 7.8 46 57 -0.1 31.9
18:40 1008 29.77 837 24.72 8.1 46.5 56 -0.2 31.7
18:45 1008 29.77 837 24.72 8.2 46.8 56 0.1 32.2
18:50 1008 29.77 837 24.72 8.1 46.5 57 0 32
18:55 1008 29.77 837 24.72 7.9 46.2 57 0 32.1
19:00 1008 29.77 837 24.72 7.8 46.1 57 -0.1 31.8
19:05 1008 29.77 838 24.75 7.8 46.1 57 -0.2 31.7
19:10 1008 29.77 838 24.75 8 46.3 57 -0.1 31.8
19:15 1008 29.77 838 24.75 8.2 46.7 55 -0.4 31.4
19:20 1008 29.77 838 24.75 8.3 47 56 0.2 32.3
19:25 1008 29.77 837 24.72 7.9 46.2 58 0.1 32.2
19:30 1008 29.77 838 24.75 7.8 46 58 0 32
19:35 1009 29.8 838 24.75 7.9 46.3 57 -0.1 31.8
19:40 1009 29.8 838 24.75 8.2 46.8 56 -0 31.9
19:45 1009 29.8 838 24.75 8.2 46.7 57 0.3 32.5
19:50 1009 29.8 838 24.75 7.7 45.8 59 0.2 32.3
19:55 1009 29.8 838 24.75 7.5 45.5 59 -0 32
20:00 1009 29.8 838 24.75 7.7 45.8 58 0 32.1
20:05 1009 29.8 838 24.75 7.9 46.2 57 -0 32
20:10 1009 29.8 838 24.75 8 46.5 57 0.2 32.3
20:15 1009 29.8 838 24.75 7.9 46.1 58 0.2 32.3
20:20 1009 29.8 838 24.75 7.7 45.8 58 0.1 32.2
20:25 1009 29.8 838 24.75 7.6 45.7 58 0 32
20:30 1008 29.77 838 24.75 7.7 45.9 57 -0.3 31.5
20:35 1008 29.77 838 24.75 8.2 46.8 56 0 32
20:40 1008 29.77 838 24.75 8.4 47.1 56 0.3 32.5
20:45 1008 29.77 838 24.75 8.1 46.6 57 0.2 32.4
20:50 1008 29.77 837 24.72 8.1 46.6 57 0.2 32.3
20:55 1008 29.77 837 24.72 8.2 46.8 57 0.3 32.6
21:00 1008 29.77 837 24.72 8.1 46.7 58 0.3 32.6
21:05 1008 29.77 837 24.72 8.1 46.7 58 0.4 32.7
21:10 1008 29.77 837 24.72 8.1 46.6 58 0.4 32.7
21:15 1008 29.77 837 24.72 8.1 46.6 58 0.4 32.7
21:20 1008 29.77 837 24.72 8 46.5 58 0.4 32.7
21:25 1008 29.77 837 24.72 8.1 46.6 58 0.5 32.9
21:30 1008 29.77 837 24.72 8 46.4 59 0.5 33
21:35 1008 29.77 837 24.72 7.9 46.1 60 0.5 32.9
21:40 1008 29.77 837 24.72 7.7 45.9 60 0.4 32.7
21:45 1008 29.77 837 24.72 7.7 45.9 59 0.2 32.4
21:50 1008 29.77 837 24.72 7.8 46 60 0.5 32.8
21:55 1008 29.77 837 24.72 7.4 45.4 61 0.5 33
22:00 1008 29.77 837 24.72 7.2 45 62 0.5 32.9
22:05 1008 29.77 837 24.72 7 44.6 63 0.4 32.8
22:10 1008 29.77 837 24.72 6.9 44.4 64 0.5 32.8
22:15 1008 29.77 837 24.72 6.9 44.3 63 0.4 32.7
22:20 1008 29.77 837 24.72 6.9 44.4 63 0.3 32.5
22:25 1008 29.77 837 24.72 7 44.6 62 0.1 32.2
22:30 1008 29.77 837 24.72 7.2 45 59 -0.1 31.8
22:35 1008 29.77 837 24.72 7.4 45.3 59 -0.1 31.8
22:40 1008 29.77 837 24.72 7.4 45.2 59 -0.2 31.7
22:45 1008 29.77 837 24.72 7.3 45.1 59 -0.2 31.7
22:50 1008 29.77 837 24.72 7.3 45.1 59 -0.2 31.7
22:55 1008 29.77 837 24.72 7.3 45.1 60 -0 32
23:00 1008 29.77 837 24.72 7.1 44.7 60 -0.2 31.6
23:05 1008 29.77 837 24.72 7 44.6 59 -0.4 31.2
23:10 1008 29.77 837 24.72 6.9 44.4 59 -0.7 30.8
23:15 1008 29.77 837 24.72 7 44.6 59 -0.4 31.3
23:20 1008 29.77 837 24.72 7 44.6 60 -0.3 31.5
23:25 1008 29.77 837 24.72 7 44.6 60 -0.2 31.7
23:30 1008 29.77 837 24.72 6.9 44.4 60 -0.3 31.4
23:35 1008 29.77 837 24.72 6.9 44.5 60 -0.3 31.5
23:40 1008 29.77 837 24.72 7 44.6 60 -0.2 31.7
23:45 1008 29.77 837 24.72 7 44.6 61 0.1 32.2
23:50 1008 29.77 837 24.72 6.8 44.2 63 0.3 32.6
23:55 1008 29.77 837 24.72 6.7 44.1 65 0.5 33
24:00 1008 29.77 837 24.72 6.7 44 65 0.6 33.1